sensor_id;sensor_type;location;lat;lon;timestamp;temperature;humidity
36716;DHT22;22699;51.034;3.730;2023-05-28T00:02:11;16.70;99.70
36716;DHT22;22699;51.034;3.730;2023-05-28T00:04:37;16.70;99.70
36716;DHT22;22699;51.034;3.730;2023-05-28T00:07:04;16.70;99.80
36716;DHT22;22699;51.034;3.730;2023-05-28T00:09:32;16.60;99.90
36716;DHT22;22699;51.034;3.730;2023-05-28T00:11:57;16.60;99.90
36716;DHT22;22699;51.034;3.730;2023-05-28T00:14:28;16.60;99.90
36716;DHT22;22699;51.034;3.730;2023-05-28T00:16:56;16.60;99.90
36716;DHT22;22699;51.034;3.730;2023-05-28T00:19:21;16.50;99.90
36716;DHT22;22699;51.034;3.730;2023-05-28T00:21:51;16.50;99.90
36716;DHT22;22699;51.034;3.730;2023-05-28T00:24:17;16.50;99.90
36716;DHT22;22699;51.034;3.730;2023-05-28T00:26:43;16.40;99.90
36716;DHT22;22699;51.034;3.730;2023-05-28T00:29:10;16.40;99.90
36716;DHT22;22699;51.034;3.730;2023-05-28T00:31:35;16.40;99.90
36716;DHT22;22699;51.034;3.730;2023-05-28T00:34:01;16.40;99.90
36716;DHT22;22699;51.034;3.730;2023-05-28T00:36:27;16.40;99.90
36716;DHT22;22699;51.034;3.730;2023-05-28T00:38:53;16.30;99.90
36716;DHT22;22699;51.034;3.730;2023-05-28T00:41:20;16.30;99.90
36716;DHT22;22699;51.034;3.730;2023-05-28T00:43:49;16.40;99.90
36716;DHT22;22699;51.034;3.730;2023-05-28T00:46:21;16.40;99.90
36716;DHT22;22699;51.034;3.730;2023-05-28T00:48:49;16.60;99.90
36716;DHT22;22699;51.034;3.730;2023-05-28T00:51:17;16.50;99.90
36716;DHT22;22699;51.034;3.730;2023-05-28T00:53:44;16.10;99.90
36716;DHT22;22699;51.034;3.730;2023-05-28T00:56:11;16.40;99.90
36716;DHT22;22699;51.034;3.730;2023-05-28T00:58:38;16.30;99.90
36716;DHT22;22699;51.034;3.730;2023-05-28T01:01:07;16.30;99.90
36716;DHT22;22699;51.034;3.730;2023-05-28T01:03:36;16.40;99.90
36716;DHT22;22699;51.034;3.730;2023-05-28T01:06:14;16.20;99.90
36716;DHT22;22699;51.034;3.730;2023-05-28T01:08:42;16.20;99.90
36716;DHT22;22699;51.034;3.730;2023-05-28T01:11:12;16.10;99.90
36716;DHT22;22699;51.034;3.730;2023-05-28T01:13:39;16.10;99.90
36716;DHT22;22699;51.034;3.730;2023-05-28T01:16:12;16.20;99.90
36716;DHT22;22699;51.034;3.730;2023-05-28T01:18:40;16.20;99.90
36716;DHT22;22699;51.034;3.730;2023-05-28T01:21:10;16.10;99.90
36716;DHT22;22699;51.034;3.730;2023-05-28T01:23:48;16.20;99.90
36716;DHT22;22699;51.034;3.730;2023-05-28T01:26:20;16.00;99.90
36716;DHT22;22699;51.034;3.730;2023-05-28T01:28:50;16.00;99.90
36716;DHT22;22699;51.034;3.730;2023-05-28T01:31:16;16.00;99.90
36716;DHT22;22699;51.034;3.730;2023-05-28T01:33:44;16.00;99.90
36716;DHT22;22699;51.034;3.730;2023-05-28T01:36:24;16.10;99.90
36716;DHT22;22699;51.034;3.730;2023-05-28T01:38:53;15.90;99.90
36716;DHT22;22699;51.034;3.730;2023-05-28T01:41:27;15.90;99.90
36716;DHT22;22699;51.034;3.730;2023-05-28T01:43:55;15.90;99.90
36716;DHT22;22699;51.034;3.730;2023-05-28T01:46:22;15.70;99.90
36716;DHT22;22699;51.034;3.730;2023-05-28T01:48:51;15.80;99.90
36716;DHT22;22699;51.034;3.730;2023-05-28T01:51:32;15.80;99.90
36716;DHT22;22699;51.034;3.730;2023-05-28T01:53:58;15.80;99.90
36716;DHT22;22699;51.034;3.730;2023-05-28T01:56:26;15.80;99.90
36716;DHT22;22699;51.034;3.730;2023-05-28T01:58:55;15.80;99.90
36716;DHT22;22699;51.034;3.730;2023-05-28T02:01:28;15.80;99.90
36716;DHT22;22699;51.034;3.730;2023-05-28T02:04:03;15.80;99.90
36716;DHT22;22699;51.034;3.730;2023-05-28T02:06:36;15.80;99.90
36716;DHT22;22699;51.034;3.730;2023-05-28T02:09:02;15.80;99.90
36716;DHT22;22699;51.034;3.730;2023-05-28T02:11:29;15.80;99.90
36716;DHT22;22699;51.034;3.730;2023-05-28T02:13:56;15.70;99.90
36716;DHT22;22699;51.034;3.730;2023-05-28T02:16:24;15.70;99.90
36716;DHT22;22699;51.034;3.730;2023-05-28T02:18:53;15.80;99.90
36716;DHT22;22699;51.034;3.730;2023-05-28T02:21:21;15.50;99.90
36716;DHT22;22699;51.034;3.730;2023-05-28T02:23:49;15.50;99.90
36716;DHT22;22699;51.034;3.730;2023-05-28T02:26:15;15.60;99.90
36716;DHT22;22699;51.034;3.730;2023-05-28T02:28:41;15.60;99.90
36716;DHT22;22699;51.034;3.730;2023-05-28T02:31:11;15.60;99.90
36716;DHT22;22699;51.034;3.730;2023-05-28T02:33:41;15.50;99.90
36716;DHT22;22699;51.034;3.730;2023-05-28T02:36:08;15.60;99.90
36716;DHT22;22699;51.034;3.730;2023-05-28T02:38:38;15.50;99.90
36716;DHT22;22699;51.034;3.730;2023-05-28T02:41:04;15.40;99.90
36716;DHT22;22699;51.034;3.730;2023-05-28T02:43:30;15.40;99.90
36716;DHT22;22699;51.034;3.730;2023-05-28T02:45:57;15.50;99.90
36716;DHT22;22699;51.034;3.730;2023-05-28T02:48:26;15.40;99.90
36716;DHT22;22699;51.034;3.730;2023-05-28T02:50:53;15.50;99.90
36716;DHT22;22699;51.034;3.730;2023-05-28T02:53:20;15.40;99.90
36716;DHT22;22699;51.034;3.730;2023-05-28T02:55:48;15.40;99.90
36716;DHT22;22699;51.034;3.730;2023-05-28T02:58:14;15.40;99.90
36716;DHT22;22699;51.034;3.730;2023-05-28T03:00:40;15.30;99.90
36716;DHT22;22699;51.034;3.730;2023-05-28T03:03:06;15.30;99.90
36716;DHT22;22699;51.034;3.730;2023-05-28T03:05:33;15.30;99.90
36716;DHT22;22699;51.034;3.730;2023-05-28T03:08:02;15.40;99.90
36716;DHT22;22699;51.034;3.730;2023-05-28T03:10:37;15.30;99.90
36716;DHT22;22699;51.034;3.730;2023-05-28T03:13:02;15.30;99.90
36716;DHT22;22699;51.034;3.730;2023-05-28T03:15:33;15.20;99.90
36716;DHT22;22699;51.034;3.730;2023-05-28T03:18:02;15.30;99.90
36716;DHT22;22699;51.034;3.730;2023-05-28T03:20:30;15.20;99.90
36716;DHT22;22699;51.034;3.730;2023-05-28T03:22:56;15.30;99.90
36716;DHT22;22699;51.034;3.730;2023-05-28T03:25:26;15.20;99.90
36716;DHT22;22699;51.034;3.730;2023-05-28T03:27:53;15.50;99.90
36716;DHT22;22699;51.034;3.730;2023-05-28T03:30:19;15.20;99.90
36716;DHT22;22699;51.034;3.730;2023-05-28T03:32:47;15.10;99.90
36716;DHT22;22699;51.034;3.730;2023-05-28T03:35:14;15.10;99.90
36716;DHT22;22699;51.034;3.730;2023-05-28T03:37:41;15.10;99.90
36716;DHT22;22699;51.034;3.730;2023-05-28T03:40:09;15.10;99.90
36716;DHT22;22699;51.034;3.730;2023-05-28T03:42:36;15.10;99.90
36716;DHT22;22699;51.034;3.730;2023-05-28T03:45:04;15.20;99.90
36716;DHT22;22699;51.034;3.730;2023-05-28T03:47:29;15.10;99.90
36716;DHT22;22699;51.034;3.730;2023-05-28T03:50:00;15.10;99.90
36716;DHT22;22699;51.034;3.730;2023-05-28T03:52:26;15.10;99.90
36716;DHT22;22699;51.034;3.730;2023-05-28T03:54:52;15.30;99.90
36716;DHT22;22699;51.034;3.730;2023-05-28T03:57:18;15.20;99.90
36716;DHT22;22699;51.034;3.730;2023-05-28T03:59:51;15.10;99.90
36716;DHT22;22699;51.034;3.730;2023-05-28T04:02:17;15.00;99.90
36716;DHT22;22699;51.034;3.730;2023-05-28T04:04:55;15.00;99.90
36716;DHT22;22699;51.034;3.730;2023-05-28T04:07:56;15.00;99.90
36716;DHT22;22699;51.034;3.730;2023-05-28T04:10:28;15.00;99.90
36716;DHT22;22699;51.034;3.730;2023-05-28T04:12:57;15.00;99.90
36716;DHT22;22699;51.034;3.730;2023-05-28T04:15:22;15.10;99.90
36716;DHT22;22699;51.034;3.730;2023-05-28T04:17:51;15.20;99.90
36716;DHT22;22699;51.034;3.730;2023-05-28T04:20:18;15.10;99.90
36716;DHT22;22699;51.034;3.730;2023-05-28T04:22:44;15.10;99.90
36716;DHT22;22699;51.034;3.730;2023-05-28T04:25:10;15.10;99.90
36716;DHT22;22699;51.034;3.730;2023-05-28T04:27:36;15.20;99.90
36716;DHT22;22699;51.034;3.730;2023-05-28T04:30:04;15.20;99.90
36716;DHT22;22699;51.034;3.730;2023-05-28T04:32:32;15.20;99.90
36716;DHT22;22699;51.034;3.730;2023-05-28T04:35:07;15.20;99.90
36716;DHT22;22699;51.034;3.730;2023-05-28T04:37:35;15.20;99.90
36716;DHT22;22699;51.034;3.730;2023-05-28T04:40:03;15.30;99.90
36716;DHT22;22699;51.034;3.730;2023-05-28T04:42:31;15.30;99.90
36716;DHT22;22699;51.034;3.730;2023-05-28T04:44:59;15.30;99.90
36716;DHT22;22699;51.034;3.730;2023-05-28T04:47:29;15.40;99.90
36716;DHT22;22699;51.034;3.730;2023-05-28T04:49:57;15.30;99.90
36716;DHT22;22699;51.034;3.730;2023-05-28T04:52:24;15.40;99.90
36716;DHT22;22699;51.034;3.730;2023-05-28T04:54:53;15.30;99.90
36716;DHT22;22699;51.034;3.730;2023-05-28T04:57:21;15.30;99.90
36716;DHT22;22699;51.034;3.730;2023-05-28T04:59:47;15.40;99.90
36716;DHT22;22699;51.034;3.730;2023-05-28T05:02:15;15.30;99.90
36716;DHT22;22699;51.034;3.730;2023-05-28T05:04:44;15.30;99.90
36716;DHT22;22699;51.034;3.730;2023-05-28T05:07:12;15.40;99.90
36716;DHT22;22699;51.034;3.730;2023-05-28T05:09:43;15.40;99.90
36716;DHT22;22699;51.034;3.730;2023-05-28T05:12:11;15.40;99.90
36716;DHT22;22699;51.034;3.730;2023-05-28T05:14:42;15.40;99.90
36716;DHT22;22699;51.034;3.730;2023-05-28T05:17:09;15.40;99.90
36716;DHT22;22699;51.034;3.730;2023-05-28T05:19:37;15.60;99.90
36716;DHT22;22699;51.034;3.730;2023-05-28T05:22:03;15.50;99.90
36716;DHT22;22699;51.034;3.730;2023-05-28T05:24:28;15.50;99.90
36716;DHT22;22699;51.034;3.730;2023-05-28T05:26:54;15.60;99.90
36716;DHT22;22699;51.034;3.730;2023-05-28T05:29:21;15.60;99.90
36716;DHT22;22699;51.034;3.730;2023-05-28T05:31:46;15.60;99.90
36716;DHT22;22699;51.034;3.730;2023-05-28T05:34:15;15.70;99.90
36716;DHT22;22699;51.034;3.730;2023-05-28T05:36:43;15.80;99.90
36716;DHT22;22699;51.034;3.730;2023-05-28T05:39:10;15.90;99.90
36716;DHT22;22699;51.034;3.730;2023-05-28T05:41:36;16.20;99.90
36716;DHT22;22699;51.034;3.730;2023-05-28T05:44:02;16.10;99.90
36716;DHT22;22699;51.034;3.730;2023-05-28T05:46:27;16.20;99.90
36716;DHT22;22699;51.034;3.730;2023-05-28T05:48:53;16.20;99.90
36716;DHT22;22699;51.034;3.730;2023-05-28T05:51:19;16.20;99.90
36716;DHT22;22699;51.034;3.730;2023-05-28T05:53:47;16.30;99.90
36716;DHT22;22699;51.034;3.730;2023-05-28T05:56:13;16.30;99.90
36716;DHT22;22699;51.034;3.730;2023-05-28T05:58:39;16.30;99.90
36716;DHT22;22699;51.034;3.730;2023-05-28T06:01:04;16.20;99.90
36716;DHT22;22699;51.034;3.730;2023-05-28T06:03:30;16.20;99.90
36716;DHT22;22699;51.034;3.730;2023-05-28T06:06:02;16.20;99.90
36716;DHT22;22699;51.034;3.730;2023-05-28T06:08:28;16.30;99.90
36716;DHT22;22699;51.034;3.730;2023-05-28T06:11:01;16.20;99.90
36716;DHT22;22699;51.034;3.730;2023-05-28T06:13:28;16.20;99.90
36716;DHT22;22699;51.034;3.730;2023-05-28T06:15:54;16.20;99.90
36716;DHT22;22699;51.034;3.730;2023-05-28T06:18:20;16.30;99.90
36716;DHT22;22699;51.034;3.730;2023-05-28T06:20:47;16.50;99.90
36716;DHT22;22699;51.034;3.730;2023-05-28T06:23:21;16.60;99.90
36716;DHT22;22699;51.034;3.730;2023-05-28T06:25:46;16.70;99.90
36716;DHT22;22699;51.034;3.730;2023-05-28T06:28:17;16.80;99.90
36716;DHT22;22699;51.034;3.730;2023-05-28T06:30:43;16.90;99.90
36716;DHT22;22699;51.034;3.730;2023-05-28T06:33:09;16.80;99.90
36716;DHT22;22699;51.034;3.730;2023-05-28T06:35:38;16.80;99.90
36716;DHT22;22699;51.034;3.730;2023-05-28T06:38:04;16.90;99.90
36716;DHT22;22699;51.034;3.730;2023-05-28T06:40:32;17.10;99.90
36716;DHT22;22699;51.034;3.730;2023-05-28T06:42:58;17.00;99.90
36716;DHT22;22699;51.034;3.730;2023-05-28T06:45:26;17.10;99.90
36716;DHT22;22699;51.034;3.730;2023-05-28T06:47:56;17.20;99.90
36716;DHT22;22699;51.034;3.730;2023-05-28T06:50:34;17.10;99.90
36716;DHT22;22699;51.034;3.730;2023-05-28T06:53:10;17.30;99.90
36716;DHT22;22699;51.034;3.730;2023-05-28T06:55:37;17.60;99.90
36716;DHT22;22699;51.034;3.730;2023-05-28T06:58:08;17.90;99.90
36716;DHT22;22699;51.034;3.730;2023-05-28T07:00:37;18.00;99.90
36716;DHT22;22699;51.034;3.730;2023-05-28T07:03:05;18.10;99.90
36716;DHT22;22699;51.034;3.730;2023-05-28T07:05:42;18.00;99.90
36716;DHT22;22699;51.034;3.730;2023-05-28T07:08:29;18.00;99.90
36716;DHT22;22699;51.034;3.730;2023-05-28T07:11:12;18.10;99.90
36716;DHT22;22699;51.034;3.730;2023-05-28T07:14:04;18.10;99.90
36716;DHT22;22699;51.034;3.730;2023-05-28T07:16:51;18.30;99.90
36716;DHT22;22699;51.034;3.730;2023-05-28T07:19:22;19.00;99.20
36716;DHT22;22699;51.034;3.730;2023-05-28T07:22:23;21.50;97.60
36716;DHT22;22699;51.034;3.730;2023-05-28T07:25:10;24.90;91.80
36716;DHT22;22699;51.034;3.730;2023-05-28T07:27:39;27.30;78.50
36716;DHT22;22699;51.034;3.730;2023-05-28T07:30:05;29.60;72.90
36716;DHT22;22699;51.034;3.730;2023-05-28T07:32:31;30.10;65.80
36716;DHT22;22699;51.034;3.730;2023-05-28T07:34:56;31.70;60.70
36716;DHT22;22699;51.034;3.730;2023-05-28T07:37:24;33.70;57.40
36716;DHT22;22699;51.034;3.730;2023-05-28T07:39:50;35.40;54.40
36716;DHT22;22699;51.034;3.730;2023-05-28T07:42:16;36.70;50.50
36716;DHT22;22699;51.034;3.730;2023-05-28T07:44:41;37.90;47.70
36716;DHT22;22699;51.034;3.730;2023-05-28T07:47:07;38.80;45.90
36716;DHT22;22699;51.034;3.730;2023-05-28T07:49:33;39.30;45.00
36716;DHT22;22699;51.034;3.730;2023-05-28T07:51:58;40.00;43.80
36716;DHT22;22699;51.034;3.730;2023-05-28T07:54:24;41.20;43.10
36716;DHT22;22699;51.034;3.730;2023-05-28T07:56:50;42.10;41.90
36716;DHT22;22699;51.034;3.730;2023-05-28T07:59:15;42.30;40.60
36716;DHT22;22699;51.034;3.730;2023-05-28T08:01:43;42.10;40.70
36716;DHT22;22699;51.034;3.730;2023-05-28T08:04:08;40.50;40.20
36716;DHT22;22699;51.034;3.730;2023-05-28T08:06:34;40.60;40.40
36716;DHT22;22699;51.034;3.730;2023-05-28T08:09:01;40.20;40.70
36716;DHT22;22699;51.034;3.730;2023-05-28T08:11:28;40.50;40.50
36716;DHT22;22699;51.034;3.730;2023-05-28T08:13:54;40.60;40.10
36716;DHT22;22699;51.034;3.730;2023-05-28T08:16:20;40.40;39.90
36716;DHT22;22699;51.034;3.730;2023-05-28T08:18:46;40.20;39.40
36716;DHT22;22699;51.034;3.730;2023-05-28T08:21:11;41.20;39.20
36716;DHT22;22699;51.034;3.730;2023-05-28T08:23:38;41.30;38.80
36716;DHT22;22699;51.034;3.730;2023-05-28T08:26:03;42.20;38.20
36716;DHT22;22699;51.034;3.730;2023-05-28T08:28:30;41.60;37.80
36716;DHT22;22699;51.034;3.730;2023-05-28T08:30:57;41.20;38.50
36716;DHT22;22699;51.034;3.730;2023-05-28T08:33:23;41.90;38.30
36716;DHT22;22699;51.034;3.730;2023-05-28T08:35:48;43.00;37.70
36716;DHT22;22699;51.034;3.730;2023-05-28T08:38:14;43.60;36.30
36716;DHT22;22699;51.034;3.730;2023-05-28T08:40:42;43.00;36.80
36716;DHT22;22699;51.034;3.730;2023-05-28T08:43:09;42.30;36.60
36716;DHT22;22699;51.034;3.730;2023-05-28T08:45:35;41.60;37.00
36716;DHT22;22699;51.034;3.730;2023-05-28T08:48:04;39.90;37.90
36716;DHT22;22699;51.034;3.730;2023-05-28T08:50:30;39.00;38.50
36716;DHT22;22699;51.034;3.730;2023-05-28T08:52:57;38.90;38.60
36716;DHT22;22699;51.034;3.730;2023-05-28T08:55:24;40.30;38.50
36716;DHT22;22699;51.034;3.730;2023-05-28T08:57:52;41.10;37.60
36716;DHT22;22699;51.034;3.730;2023-05-28T09:00:17;41.20;37.10
36716;DHT22;22699;51.034;3.730;2023-05-28T09:02:44;41.20;37.10
36716;DHT22;22699;51.034;3.730;2023-05-28T09:05:10;42.90;36.30
36716;DHT22;22699;51.034;3.730;2023-05-28T09:07:36;42.20;35.30
36716;DHT22;22699;51.034;3.730;2023-05-28T09:10:03;43.10;35.30
36716;DHT22;22699;51.034;3.730;2023-05-28T09:12:29;43.40;35.00
36716;DHT22;22699;51.034;3.730;2023-05-28T09:14:55;42.00;35.30
36716;DHT22;22699;51.034;3.730;2023-05-28T09:19:59;42.20;35.30
36716;DHT22;22699;51.034;3.730;2023-05-28T09:22:26;42.00;35.40
36716;DHT22;22699;51.034;3.730;2023-05-28T09:24:53;43.20;34.20
36716;DHT22;22699;51.034;3.730;2023-05-28T09:27:20;42.20;34.30
36716;DHT22;22699;51.034;3.730;2023-05-28T09:29:47;41.80;34.90
36716;DHT22;22699;51.034;3.730;2023-05-28T09:32:17;42.10;35.00
36716;DHT22;22699;51.034;3.730;2023-05-28T09:34:45;42.80;34.70
36716;DHT22;22699;51.034;3.730;2023-05-28T09:37:15;43.10;34.30
36716;DHT22;22699;51.034;3.730;2023-05-28T09:39:43;42.40;34.60
36716;DHT22;22699;51.034;3.730;2023-05-28T09:42:10;41.60;34.90
36716;DHT22;22699;51.034;3.730;2023-05-28T09:44:38;40.40;36.30
36716;DHT22;22699;51.034;3.730;2023-05-28T09:47:17;40.30;36.30
36716;DHT22;22699;51.034;3.730;2023-05-28T09:49:47;40.50;36.40
36716;DHT22;22699;51.034;3.730;2023-05-28T09:52:18;41.10;35.80
36716;DHT22;22699;51.034;3.730;2023-05-28T09:54:55;41.70;35.40
36716;DHT22;22699;51.034;3.730;2023-05-28T09:57:26;41.60;35.00
36716;DHT22;22699;51.034;3.730;2023-05-28T09:59:54;41.40;34.80
36716;DHT22;22699;51.034;3.730;2023-05-28T10:02:28;41.30;35.00
36716;DHT22;22699;51.034;3.730;2023-05-28T10:05:02;40.40;34.80
36716;DHT22;22699;51.034;3.730;2023-05-28T10:07:28;40.70;35.00
36716;DHT22;22699;51.034;3.730;2023-05-28T10:09:55;37.90;36.50
36716;DHT22;22699;51.034;3.730;2023-05-28T10:12:26;35.60;38.30
36716;DHT22;22699;51.034;3.730;2023-05-28T10:14:53;33.50;40.60
36716;DHT22;22699;51.034;3.730;2023-05-28T10:17:19;32.00;42.50
36716;DHT22;22699;51.034;3.730;2023-05-28T10:19:46;30.30;44.70
36716;DHT22;22699;51.034;3.730;2023-05-28T10:22:14;29.20;46.60
36716;DHT22;22699;51.034;3.730;2023-05-28T10:24:39;28.20;48.20
36716;DHT22;22699;51.034;3.730;2023-05-28T10:27:06;27.50;50.40
36716;DHT22;22699;51.034;3.730;2023-05-28T10:29:45;26.80;52.40
36716;DHT22;22699;51.034;3.730;2023-05-28T10:32:46;26.30;53.60
36716;DHT22;22699;51.034;3.730;2023-05-28T10:35:12;25.80;54.90
36716;DHT22;22699;51.034;3.730;2023-05-28T10:37:38;25.50;55.40
36716;DHT22;22699;51.034;3.730;2023-05-28T10:40:10;25.40;55.70
36716;DHT22;22699;51.034;3.730;2023-05-28T10:42:47;25.30;55.30
36716;DHT22;22699;51.034;3.730;2023-05-28T10:45:12;25.10;55.20
36716;DHT22;22699;51.034;3.730;2023-05-28T10:47:51;25.00;55.30
36716;DHT22;22699;51.034;3.730;2023-05-28T10:50:18;25.00;55.70
36716;DHT22;22699;51.034;3.730;2023-05-28T10:53:03;24.70;55.80
36716;DHT22;22699;51.034;3.730;2023-05-28T10:55:49;24.60;56.00
36716;DHT22;22699;51.034;3.730;2023-05-28T11:01:19;24.70;55.20
36716;DHT22;22699;51.034;3.730;2023-05-28T11:03:51;24.70;54.80
36716;DHT22;22699;51.034;3.730;2023-05-28T11:06:17;24.60;54.60
36716;DHT22;22699;51.034;3.730;2023-05-28T11:08:44;24.70;54.50
36716;DHT22;22699;51.034;3.730;2023-05-28T11:11:12;24.90;54.70
36716;DHT22;22699;51.034;3.730;2023-05-28T11:13:38;25.10;53.30
36716;DHT22;22699;51.034;3.730;2023-05-28T11:16:08;25.10;52.80
36716;DHT22;22699;51.034;3.730;2023-05-28T11:18:34;25.30;52.50
36716;DHT22;22699;51.034;3.730;2023-05-28T11:21:07;25.10;53.70
36716;DHT22;22699;51.034;3.730;2023-05-28T11:23:37;25.00;54.20
36716;DHT22;22699;51.034;3.730;2023-05-28T11:26:03;24.80;54.60
36716;DHT22;22699;51.034;3.730;2023-05-28T11:28:30;24.90;55.30
36716;DHT22;22699;51.034;3.730;2023-05-28T11:30:58;25.00;54.90
36716;DHT22;22699;51.034;3.730;2023-05-28T11:33:26;24.80;55.90
36716;DHT22;22699;51.034;3.730;2023-05-28T11:36:00;24.60;56.00
36716;DHT22;22699;51.034;3.730;2023-05-28T11:38:29;24.50;56.30
36716;DHT22;22699;51.034;3.730;2023-05-28T11:41:01;24.30;56.70
36716;DHT22;22699;51.034;3.730;2023-05-28T11:43:27;24.30;56.70
36716;DHT22;22699;51.034;3.730;2023-05-28T11:45:59;24.30;56.40
36716;DHT22;22699;51.034;3.730;2023-05-28T11:48:28;24.30;56.00
36716;DHT22;22699;51.034;3.730;2023-05-28T11:51:00;24.30;56.10
36716;DHT22;22699;51.034;3.730;2023-05-28T11:53:40;24.20;55.90
36716;DHT22;22699;51.034;3.730;2023-05-28T11:56:06;24.30;56.00
36716;DHT22;22699;51.034;3.730;2023-05-28T11:58:33;24.40;56.20
36716;DHT22;22699;51.034;3.730;2023-05-28T12:01:03;24.40;56.90
36716;DHT22;22699;51.034;3.730;2023-05-28T12:03:29;24.20;56.30
36716;DHT22;22699;51.034;3.730;2023-05-28T12:05:55;24.30;56.50
36716;DHT22;22699;51.034;3.730;2023-05-28T12:08:21;24.20;56.70
36716;DHT22;22699;51.034;3.730;2023-05-28T12:10:46;24.10;56.60
36716;DHT22;22699;51.034;3.730;2023-05-28T12:13:12;24.00;56.70
36716;DHT22;22699;51.034;3.730;2023-05-28T12:15:38;24.20;57.30
36716;DHT22;22699;51.034;3.730;2023-05-28T12:18:04;24.10;56.90
36716;DHT22;22699;51.034;3.730;2023-05-28T12:20:36;24.20;57.40
36716;DHT22;22699;51.034;3.730;2023-05-28T12:23:06;24.30;57.30
36716;DHT22;22699;51.034;3.730;2023-05-28T12:25:48;24.50;56.80
36716;DHT22;22699;51.034;3.730;2023-05-28T12:28:16;24.50;56.30
36716;DHT22;22699;51.034;3.730;2023-05-28T12:30:43;24.50;56.20
36716;DHT22;22699;51.034;3.730;2023-05-28T12:33:10;24.50;56.90
36716;DHT22;22699;51.034;3.730;2023-05-28T12:35:36;24.40;57.30
36716;DHT22;22699;51.034;3.730;2023-05-28T12:38:01;24.40;57.40
36716;DHT22;22699;51.034;3.730;2023-05-28T12:40:28;24.50;57.40
36716;DHT22;22699;51.034;3.730;2023-05-28T12:42:53;24.40;57.10
36716;DHT22;22699;51.034;3.730;2023-05-28T12:45:19;24.50;57.00
36716;DHT22;22699;51.034;3.730;2023-05-28T12:47:44;24.70;56.90
36716;DHT22;22699;51.034;3.730;2023-05-28T12:50:10;24.60;56.70
36716;DHT22;22699;51.034;3.730;2023-05-28T12:52:36;24.60;56.80
36716;DHT22;22699;51.034;3.730;2023-05-28T12:55:02;24.50;56.70
36716;DHT22;22699;51.034;3.730;2023-05-28T12:57:28;24.30;56.60
36716;DHT22;22699;51.034;3.730;2023-05-28T12:59:53;24.20;56.80
36716;DHT22;22699;51.034;3.730;2023-05-28T13:02:19;24.10;56.90
36716;DHT22;22699;51.034;3.730;2023-05-28T13:04:44;24.10;57.30
36716;DHT22;22699;51.034;3.730;2023-05-28T13:07:10;24.30;57.10
36716;DHT22;22699;51.034;3.730;2023-05-28T13:09:37;24.50;56.30
36716;DHT22;22699;51.034;3.730;2023-05-28T13:12:04;24.40;56.60
36716;DHT22;22699;51.034;3.730;2023-05-28T13:14:29;24.40;56.30
36716;DHT22;22699;51.034;3.730;2023-05-28T13:16:59;24.30;56.50
36716;DHT22;22699;51.034;3.730;2023-05-28T13:19:25;24.30;57.40
36716;DHT22;22699;51.034;3.730;2023-05-28T13:21:51;24.30;57.00
36716;DHT22;22699;51.034;3.730;2023-05-28T13:24:17;24.30;57.20
36716;DHT22;22699;51.034;3.730;2023-05-28T13:26:42;24.40;57.30
36716;DHT22;22699;51.034;3.730;2023-05-28T13:29:08;24.40;57.40
36716;DHT22;22699;51.034;3.730;2023-05-28T13:31:34;24.40;57.50
36716;DHT22;22699;51.034;3.730;2023-05-28T13:34:00;24.30;57.70
36716;DHT22;22699;51.034;3.730;2023-05-28T13:36:26;24.20;57.70
36716;DHT22;22699;51.034;3.730;2023-05-28T13:38:52;24.30;57.80
36716;DHT22;22699;51.034;3.730;2023-05-28T13:41:18;24.30;57.70
36716;DHT22;22699;51.034;3.730;2023-05-28T13:43:44;24.40;57.70
36716;DHT22;22699;51.034;3.730;2023-05-28T13:46:10;24.40;57.40
36716;DHT22;22699;51.034;3.730;2023-05-28T13:48:36;24.50;57.40
36716;DHT22;22699;51.034;3.730;2023-05-28T13:51:02;24.60;57.20
36716;DHT22;22699;51.034;3.730;2023-05-28T13:53:29;24.50;57.30
36716;DHT22;22699;51.034;3.730;2023-05-28T13:55:55;24.70;57.10
36716;DHT22;22699;51.034;3.730;2023-05-28T13:58:21;24.50;57.30
36716;DHT22;22699;51.034;3.730;2023-05-28T14:00:47;24.40;57.20
36716;DHT22;22699;51.034;3.730;2023-05-28T14:03:12;24.50;57.80
36716;DHT22;22699;51.034;3.730;2023-05-28T14:05:39;24.40;58.70
36716;DHT22;22699;51.034;3.730;2023-05-28T14:08:06;24.30;58.60
36716;DHT22;22699;51.034;3.730;2023-05-28T14:10:32;24.20;58.60
36716;DHT22;22699;51.034;3.730;2023-05-28T14:12:58;24.10;59.00
36716;DHT22;22699;51.034;3.730;2023-05-28T14:15:23;24.20;59.30
36716;DHT22;22699;51.034;3.730;2023-05-28T14:17:49;24.20;59.70
36716;DHT22;22699;51.034;3.730;2023-05-28T14:20:15;24.20;59.90
36716;DHT22;22699;51.034;3.730;2023-05-28T14:22:41;24.20;60.00
36716;DHT22;22699;51.034;3.730;2023-05-28T14:25:08;24.30;60.30
36716;DHT22;22699;51.034;3.730;2023-05-28T14:27:34;24.40;60.20
36716;DHT22;22699;51.034;3.730;2023-05-28T14:29:59;24.50;60.00
36716;DHT22;22699;51.034;3.730;2023-05-28T14:32:25;24.50;59.10
36716;DHT22;22699;51.034;3.730;2023-05-28T14:34:51;24.40;58.50
36716;DHT22;22699;51.034;3.730;2023-05-28T14:37:16;24.40;58.90
36716;DHT22;22699;51.034;3.730;2023-05-28T14:39:44;24.20;59.70
36716;DHT22;22699;51.034;3.730;2023-05-28T14:42:10;24.10;60.30
36716;DHT22;22699;51.034;3.730;2023-05-28T14:44:36;24.10;60.50
36716;DHT22;22699;51.034;3.730;2023-05-28T14:47:01;24.00;60.40
36716;DHT22;22699;51.034;3.730;2023-05-28T14:49:27;24.20;60.20
36716;DHT22;22699;51.034;3.730;2023-05-28T14:51:56;24.20;59.80
36716;DHT22;22699;51.034;3.730;2023-05-28T14:54:25;24.10;60.00
36716;DHT22;22699;51.034;3.730;2023-05-28T14:56:51;24.10;59.70
36716;DHT22;22699;51.034;3.730;2023-05-28T14:59:18;24.30;59.90
36716;DHT22;22699;51.034;3.730;2023-05-28T15:01:44;24.40;59.90
36716;DHT22;22699;51.034;3.730;2023-05-28T15:04:09;24.40;59.70
36716;DHT22;22699;51.034;3.730;2023-05-28T15:06:35;24.40;59.80
36716;DHT22;22699;51.034;3.730;2023-05-28T15:09:00;24.30;60.00
36716;DHT22;22699;51.034;3.730;2023-05-28T15:11:26;24.20;59.70
36716;DHT22;22699;51.034;3.730;2023-05-28T15:13:52;24.20;59.70
36716;DHT22;22699;51.034;3.730;2023-05-28T15:16:19;24.20;59.80
36716;DHT22;22699;51.034;3.730;2023-05-28T15:18:44;24.20;60.40
36716;DHT22;22699;51.034;3.730;2023-05-28T15:21:10;24.20;60.60
36716;DHT22;22699;51.034;3.730;2023-05-28T15:23:37;24.20;60.50
36716;DHT22;22699;51.034;3.730;2023-05-28T15:26:03;24.30;60.30
36716;DHT22;22699;51.034;3.730;2023-05-28T15:28:29;24.10;60.30
36716;DHT22;22699;51.034;3.730;2023-05-28T15:30:55;24.00;60.50
36716;DHT22;22699;51.034;3.730;2023-05-28T15:33:21;24.00;60.50
36716;DHT22;22699;51.034;3.730;2023-05-28T15:35:47;24.10;60.40
36716;DHT22;22699;51.034;3.730;2023-05-28T15:38:13;24.10;60.20
36716;DHT22;22699;51.034;3.730;2023-05-28T15:40:39;24.10;59.90
36716;DHT22;22699;51.034;3.730;2023-05-28T15:43:05;24.00;60.10